sensor_id;sensor_type;location;lat;lon;timestamp;P1;durP1;ratioP1;P2;durP2;ratioP2
9960;SDS011;5021;51.506;11.320;2023-07-30T00:00:56;3.23;;;2.93;;
9960;SDS011;5021;51.506;11.320;2023-07-30T00:03:22;3.30;;;3.00;;
9960;SDS011;5021;51.506;11.320;2023-07-30T00:05:54;3.70;;;2.80;;
9960;SDS011;5021;51.506;11.320;2023-07-30T00:08:20;3.40;;;3.10;;
9960;SDS011;5021;51.506;11.320;2023-07-30T00:10:46;3.90;;;2.70;;
9960;SDS011;5021;51.506;11.320;2023-07-30T00:13:12;3.30;;;3.00;;
9960;SDS011;5021;51.506;11.320;2023-07-30T00:15:38;4.30;;;2.70;;
9960;SDS011;5021;51.506;11.320;2023-07-30T00:18:04;2.63;;;2.43;;
9960;SDS011;5021;51.506;11.320;2023-07-30T00:20:30;3.37;;;2.50;;
9960;SDS011;5021;51.506;11.320;2023-07-30T00:22:56;3.00;;;2.63;;
9960;SDS011;5021;51.506;11.320;2023-07-30T00:25:22;4.00;;;2.83;;
9960;SDS011;5021;51.506;11.320;2023-07-30T00:27:48;4.40;;;3.07;;
9960;SDS011;5021;51.506;11.320;2023-07-30T00:30:14;4.37;;;2.87;;
9960;SDS011;5021;51.506;11.320;2023-07-30T00:32:40;2.83;;;2.57;;
9960;SDS011;5021;51.506;11.320;2023-07-30T00:35:08;4.00;;;2.90;;
9960;SDS011;5021;51.506;11.320;2023-07-30T00:37:34;3.57;;;2.50;;
9960;SDS011;5021;51.506;11.320;2023-07-30T00:40:01;6.00;;;2.90;;
9960;SDS011;5021;51.506;11.320;2023-07-30T00:42:28;2.63;;;2.43;;
9960;SDS011;5021;51.506;11.320;2023-07-30T00:44:56;2.97;;;2.70;;
9960;SDS011;5021;51.506;11.320;2023-07-30T00:47:22;4.37;;;2.83;;
9960;SDS011;5021;51.506;11.320;2023-07-30T00:49:48;5.20;;;2.87;;
9960;SDS011;5021;51.506;11.320;2023-07-30T00:52:18;5.90;;;2.83;;
9960;SDS011;5021;51.506;11.320;2023-07-30T00:54:46;3.57;;;2.60;;
9960;SDS011;5021;51.506;11.320;2023-07-30T00:57:13;3.20;;;2.90;;
9960;SDS011;5021;51.506;11.320;2023-07-30T00:59:40;3.13;;;2.63;;
9960;SDS011;5021;51.506;11.320;2023-07-30T01:02:06;4.17;;;2.90;;
9960;SDS011;5021;51.506;11.320;2023-07-30T01:04:32;3.07;;;2.87;;
9960;SDS011;5021;51.506;11.320;2023-07-30T01:06:58;3.57;;;2.90;;
9960;SDS011;5021;51.506;11.320;2023-07-30T01:09:24;2.87;;;2.63;;
9960;SDS011;5021;51.506;11.320;2023-07-30T01:11:51;5.17;;;3.10;;
9960;SDS011;5021;51.506;11.320;2023-07-30T01:14:18;3.40;;;2.93;;
9960;SDS011;5021;51.506;11.320;2023-07-30T01:16:45;4.33;;;3.00;;
9960;SDS011;5021;51.506;11.320;2023-07-30T01:19:11;3.70;;;3.23;;
9960;SDS011;5021;51.506;11.320;2023-07-30T01:21:37;3.37;;;3.07;;
9960;SDS011;5021;51.506;11.320;2023-07-30T01:24:03;4.73;;;2.80;;
9960;SDS011;5021;51.506;11.320;2023-07-30T01:26:46;2.87;;;2.67;;
9960;SDS011;5021;51.506;11.320;2023-07-30T01:29:21;4.13;;;2.70;;
9960;SDS011;5021;51.506;11.320;2023-07-30T01:31:47;3.37;;;2.83;;
9960;SDS011;5021;51.506;11.320;2023-07-30T01:34:16;3.33;;;2.77;;
9960;SDS011;5021;51.506;11.320;2023-07-30T01:36:42;3.20;;;2.90;;
9960;SDS011;5021;51.506;11.320;2023-07-30T01:39:09;4.00;;;3.03;;
9960;SDS011;5021;51.506;11.320;2023-07-30T01:41:35;3.70;;;2.80;;
9960;SDS011;5021;51.506;11.320;2023-07-30T01:44:01;5.00;;;3.33;;
9960;SDS011;5021;51.506;11.320;2023-07-30T01:46:27;4.27;;;3.10;;
9960;SDS011;5021;51.506;11.320;2023-07-30T01:48:53;3.33;;;2.80;;
9960;SDS011;5021;51.506;11.320;2023-07-30T01:51:19;4.87;;;3.20;;
9960;SDS011;5021;51.506;11.320;2023-07-30T01:53:45;3.17;;;2.97;;
9960;SDS011;5021;51.506;11.320;2023-07-30T01:56:11;3.40;;;3.10;;
9960;SDS011;5021;51.506;11.320;2023-07-30T01:58:37;3.27;;;2.97;;
9960;SDS011;5021;51.506;11.320;2023-07-30T02:01:03;5.57;;;3.43;;
9960;SDS011;5021;51.506;11.320;2023-07-30T02:03:29;3.23;;;2.93;;
9960;SDS011;5021;51.506;11.320;2023-07-30T02:05:55;3.20;;;2.90;;
9960;SDS011;5021;51.506;11.320;2023-07-30T02:08:20;6.23;;;2.93;;
9960;SDS011;5021;51.506;11.320;2023-07-30T02:10:54;3.07;;;2.77;;
9960;SDS011;5021;51.506;11.320;2023-07-30T02:13:20;3.10;;;2.80;;
9960;SDS011;5021;51.506;11.320;2023-07-30T02:15:46;2.97;;;2.77;;
9960;SDS011;5021;51.506;11.320;2023-07-30T02:18:12;3.00;;;2.80;;
9960;SDS011;5021;51.506;11.320;2023-07-30T02:20:38;3.63;;;2.77;;
9960;SDS011;5021;51.506;11.320;2023-07-30T02:23:04;2.80;;;2.60;;
9960;SDS011;5021;51.506;11.320;2023-07-30T02:25:30;4.63;;;2.83;;
9960;SDS011;5021;51.506;11.320;2023-07-30T02:27:56;4.90;;;3.00;;
9960;SDS011;5021;51.506;11.320;2023-07-30T02:30:22;3.40;;;2.97;;
9960;SDS011;5021;51.506;11.320;2023-07-30T02:32:48;3.40;;;3.10;;
9960;SDS011;5021;51.506;11.320;2023-07-30T02:35:14;3.83;;;3.00;;
9960;SDS011;5021;51.506;11.320;2023-07-30T02:37:40;4.50;;;2.90;;
9960;SDS011;5021;51.506;11.320;2023-07-30T02:40:06;5.23;;;3.00;;
9960;SDS011;5021;51.506;11.320;2023-07-30T02:42:32;4.53;;;3.13;;
9960;SDS011;5021;51.506;11.320;2023-07-30T02:44:58;3.90;;;3.47;;
9960;SDS011;5021;51.506;11.320;2023-07-30T02:47:24;3.60;;;3.30;;
9960;SDS011;5021;51.506;11.320;2023-07-30T02:49:50;3.60;;;3.30;;
9960;SDS011;5021;51.506;11.320;2023-07-30T02:52:16;4.67;;;3.63;;
9960;SDS011;5021;51.506;11.320;2023-07-30T02:54:42;3.57;;;3.27;;
9960;SDS011;5021;51.506;11.320;2023-07-30T02:57:08;3.50;;;3.20;;
9960;SDS011;5021;51.506;11.320;2023-07-30T02:59:35;3.57;;;3.27;;
9960;SDS011;5021;51.506;11.320;2023-07-30T03:02:02;4.10;;;3.30;;
9960;SDS011;5021;51.506;11.320;2023-07-30T03:04:30;4.00;;;3.10;;
9960;SDS011;5021;51.506;11.320;2023-07-30T03:06:56;3.80;;;3.50;;
9960;SDS011;5021;51.506;11.320;2023-07-30T03:09:22;5.17;;;3.17;;
9960;SDS011;5021;51.506;11.320;2023-07-30T03:11:49;3.60;;;3.30;;
9960;SDS011;5021;51.506;11.320;2023-07-30T03:14:15;3.40;;;3.10;;
9960;SDS011;5021;51.506;11.320;2023-07-30T03:16:41;3.70;;;3.37;;
9960;SDS011;5021;51.506;11.320;2023-07-30T03:19:07;4.47;;;3.40;;
9960;SDS011;5021;51.506;11.320;2023-07-30T03:21:33;3.77;;;3.43;;
9960;SDS011;5021;51.506;11.320;2023-07-30T03:23:59;3.47;;;3.17;;
9960;SDS011;5021;51.506;11.320;2023-07-30T03:26:25;3.53;;;3.23;;
9960;SDS011;5021;51.506;11.320;2023-07-30T03:28:51;3.73;;;3.17;;
9960;SDS011;5021;51.506;11.320;2023-07-30T03:31:17;3.70;;;3.00;;
9960;SDS011;5021;51.506;11.320;2023-07-30T03:33:43;3.20;;;2.93;;
9960;SDS011;5021;51.506;11.320;2023-07-30T03:36:12;4.13;;;3.13;;
9960;SDS011;5021;51.506;11.320;2023-07-30T03:38:39;3.90;;;3.60;;
9960;SDS011;5021;51.506;11.320;2023-07-30T03:41:05;4.23;;;3.43;;
9960;SDS011;5021;51.506;11.320;2023-07-30T03:43:32;3.40;;;3.10;;
9960;SDS011;5021;51.506;11.320;2023-07-30T03:45:57;3.60;;;3.10;;
9960;SDS011;5021;51.506;11.320;2023-07-30T03:48:23;3.73;;;3.37;;
9960;SDS011;5021;51.506;11.320;2023-07-30T03:50:49;4.47;;;3.20;;
9960;SDS011;5021;51.506;11.320;2023-07-30T03:53:15;3.77;;;3.40;;
9960;SDS011;5021;51.506;11.320;2023-07-30T03:55:41;5.10;;;3.37;;
9960;SDS011;5021;51.506;11.320;2023-07-30T03:58:07;3.80;;;3.50;;
9960;SDS011;5021;51.506;11.320;2023-07-30T04:00:33;3.93;;;3.60;;
9960;SDS011;5021;51.506;11.320;2023-07-30T04:02:59;7.03;;;3.43;;
9960;SDS011;5021;51.506;11.320;2023-07-30T04:05:25;4.83;;;3.57;;
9960;SDS011;5021;51.506;11.320;2023-07-30T04:07:51;4.10;;;3.73;;
9960;SDS011;5021;51.506;11.320;2023-07-30T04:10:17;4.17;;;3.77;;
9960;SDS011;5021;51.506;11.320;2023-07-30T04:12:43;4.93;;;4.00;;
9960;SDS011;5021;51.506;11.320;2023-07-30T04:15:09;3.90;;;3.60;;
9960;SDS011;5021;51.506;11.320;2023-07-30T04:17:36;4.37;;;3.97;;
9960;SDS011;5021;51.506;11.320;2023-07-30T04:20:02;6.37;;;4.17;;
9960;SDS011;5021;51.506;11.320;2023-07-30T04:22:29;3.90;;;3.60;;
9960;SDS011;5021;51.506;11.320;2023-07-30T04:24:55;4.47;;;3.97;;
9960;SDS011;5021;51.506;11.320;2023-07-30T04:27:21;4.47;;;3.80;;
9960;SDS011;5021;51.506;11.320;2023-07-30T04:29:46;3.77;;;3.47;;
9960;SDS011;5021;51.506;11.320;2023-07-30T04:32:12;4.00;;;3.40;;
9960;SDS011;5021;51.506;11.320;2023-07-30T04:34:38;3.70;;;3.40;;
9960;SDS011;5021;51.506;11.320;2023-07-30T04:37:05;3.60;;;3.30;;
9960;SDS011;5021;51.506;11.320;2023-07-30T04:39:34;3.07;;;2.87;;
9960;SDS011;5021;51.506;11.320;2023-07-30T04:42:00;3.53;;;3.30;;
9960;SDS011;5021;51.506;11.320;2023-07-30T04:44:26;3.83;;;3.03;;
9960;SDS011;5021;51.506;11.320;2023-07-30T04:46:52;4.33;;;3.30;;
9960;SDS011;5021;51.506;11.320;2023-07-30T04:49:18;3.67;;;3.20;;
9960;SDS011;5021;51.506;11.320;2023-07-30T04:51:44;3.33;;;3.03;;
9960;SDS011;5021;51.506;11.320;2023-07-30T04:54:10;6.37;;;2.63;;
9960;SDS011;5021;51.506;11.320;2023-07-30T04:56:36;3.50;;;3.20;;
9960;SDS011;5021;51.506;11.320;2023-07-30T04:59:02;3.37;;;3.07;;
9960;SDS011;5021;51.506;11.320;2023-07-30T05:01:28;3.43;;;3.13;;
9960;SDS011;5021;51.506;11.320;2023-07-30T05:03:55;3.43;;;3.13;;
9960;SDS011;5021;51.506;11.320;2023-07-30T05:06:21;3.40;;;3.10;;
9960;SDS011;5021;51.506;11.320;2023-07-30T05:08:47;2.93;;;2.73;;
9960;SDS011;5021;51.506;11.320;2023-07-30T05:11:13;3.20;;;2.90;;
9960;SDS011;5021;51.506;11.320;2023-07-30T05:13:39;4.97;;;3.20;;
9960;SDS011;5021;51.506;11.320;2023-07-30T05:16:05;4.83;;;3.13;;
9960;SDS011;5021;51.506;11.320;2023-07-30T05:18:31;3.00;;;2.80;;
9960;SDS011;5021;51.506;11.320;2023-07-30T05:20:58;3.23;;;2.93;;
9960;SDS011;5021;51.506;11.320;2023-07-30T05:23:23;3.30;;;3.00;;
9960;SDS011;5021;51.506;11.320;2023-07-30T05:25:49;3.47;;;3.17;;
9960;SDS011;5021;51.506;11.320;2023-07-30T05:28:15;5.43;;;3.17;;
9960;SDS011;5021;51.506;11.320;2023-07-30T05:30:41;3.03;;;2.83;;
9960;SDS011;5021;51.506;11.320;2023-07-30T05:33:07;3.30;;;3.00;;
9960;SDS011;5021;51.506;11.320;2023-07-30T05:35:33;3.83;;;2.73;;
9960;SDS011;5021;51.506;11.320;2023-07-30T05:37:59;3.43;;;2.90;;
9960;SDS011;5021;51.506;11.320;2023-07-30T05:40:25;4.03;;;3.13;;
9960;SDS011;5021;51.506;11.320;2023-07-30T05:42:51;4.13;;;3.67;;
9960;SDS011;5021;51.506;11.320;2023-07-30T05:45:17;3.43;;;3.13;;
9960;SDS011;5021;51.506;11.320;2023-07-30T05:47:43;6.00;;;3.63;;
9960;SDS011;5021;51.506;11.320;2023-07-30T05:50:09;3.87;;;3.57;;
9960;SDS011;5021;51.506;11.320;2023-07-30T05:52:35;4.37;;;3.70;;
9960;SDS011;5021;51.506;11.320;2023-07-30T05:55:01;3.90;;;3.60;;
9960;SDS011;5021;51.506;11.320;2023-07-30T05:57:27;5.53;;;4.60;;
9960;SDS011;5021;51.506;11.320;2023-07-30T05:59:53;4.67;;;4.10;;
9960;SDS011;5021;51.506;11.320;2023-07-30T06:02:19;4.37;;;3.90;;
9960;SDS011;5021;51.506;11.320;2023-07-30T06:04:45;4.20;;;3.83;;
9960;SDS011;5021;51.506;11.320;2023-07-30T06:07:11;4.23;;;3.80;;
9960;SDS011;5021;51.506;11.320;2023-07-30T06:09:37;4.83;;;3.80;;
9960;SDS011;5021;51.506;11.320;2023-07-30T06:12:03;5.63;;;4.17;;
9960;SDS011;5021;51.506;11.320;2023-07-30T06:14:29;4.87;;;4.10;;
9960;SDS011;5021;51.506;11.320;2023-07-30T06:16:55;3.73;;;3.30;;
9960;SDS011;5021;51.506;11.320;2023-07-30T06:19:21;4.83;;;4.13;;
9960;SDS011;5021;51.506;11.320;2023-07-30T06:21:47;4.50;;;3.83;;
9960;SDS011;5021;51.506;11.320;2023-07-30T06:24:13;4.60;;;4.20;;
9960;SDS011;5021;51.506;11.320;2023-07-30T06:26:39;3.90;;;3.60;;
9960;SDS011;5021;51.506;11.320;2023-07-30T06:29:05;4.20;;;3.80;;
9960;SDS011;5021;51.506;11.320;2023-07-30T06:31:30;4.57;;;3.60;;
9960;SDS011;5021;51.506;11.320;2023-07-30T06:33:56;6.03;;;4.00;;
9960;SDS011;5021;51.506;11.320;2023-07-30T06:36:22;5.53;;;4.20;;
9960;SDS011;5021;51.506;11.320;2023-07-30T06:38:48;4.53;;;3.90;;
9960;SDS011;5021;51.506;11.320;2023-07-30T06:41:14;7.43;;;3.90;;
9960;SDS011;5021;51.506;11.320;2023-07-30T06:43:40;5.03;;;4.23;;
9960;SDS011;5021;51.506;11.320;2023-07-30T06:46:06;4.53;;;3.80;;
9960;SDS011;5021;51.506;11.320;2023-07-30T06:48:32;6.13;;;3.93;;
9960;SDS011;5021;51.506;11.320;2023-07-30T06:50:58;4.87;;;3.90;;
9960;SDS011;5021;51.506;11.320;2023-07-30T06:53:24;3.90;;;3.33;;
9960;SDS011;5021;51.506;11.320;2023-07-30T06:55:50;3.80;;;3.40;;
9960;SDS011;5021;51.506;11.320;2023-07-30T06:58:16;4.63;;;3.43;;
9960;SDS011;5021;51.506;11.320;2023-07-30T07:00:42;4.50;;;3.03;;
9960;SDS011;5021;51.506;11.320;2023-07-30T07:03:08;3.57;;;3.27;;
9960;SDS011;5021;51.506;11.320;2023-07-30T07:05:34;4.73;;;3.47;;
9960;SDS011;5021;51.506;11.320;2023-07-30T07:08:00;4.33;;;2.90;;
9960;SDS011;5021;51.506;11.320;2023-07-30T07:10:25;3.80;;;3.10;;
9960;SDS011;5021;51.506;11.320;2023-07-30T07:12:51;4.83;;;2.90;;
9960;SDS011;5021;51.506;11.320;2023-07-30T07:15:17;4.68;;;2.63;;
9960;SDS011;5021;51.506;11.320;2023-07-30T07:17:44;3.20;;;2.50;;
9960;SDS011;5021;51.506;11.320;2023-07-30T07:20:10;4.80;;;2.30;;
9960;SDS011;5021;51.506;11.320;2023-07-30T07:22:36;3.77;;;2.53;;
9960;SDS011;5021;51.506;11.320;2023-07-30T07:25:02;3.60;;;2.70;;
9960;SDS011;5021;51.506;11.320;2023-07-30T07:27:28;3.23;;;2.37;;
9960;SDS011;5021;51.506;11.320;2023-07-30T07:29:54;3.30;;;2.90;;
9960;SDS011;5021;51.506;11.320;2023-07-30T07:32:21;5.00;;;3.27;;
9960;SDS011;5021;51.506;11.320;2023-07-30T07:34:50;3.73;;;2.97;;
9960;SDS011;5021;51.506;11.320;2023-07-30T07:37:16;5.20;;;2.97;;
9960;SDS011;5021;51.506;11.320;2023-07-30T07:39:43;4.13;;;3.23;;
9960;SDS011;5021;51.506;11.320;2023-07-30T07:42:09;5.17;;;2.93;;
9960;SDS011;5021;51.506;11.320;2023-07-30T07:44:36;3.77;;;2.77;;
9960;SDS011;5021;51.506;11.320;2023-07-30T07:47:02;3.23;;;2.60;;
9960;SDS011;5021;51.506;11.320;2023-07-30T07:49:28;3.27;;;2.73;;
9960;SDS011;5021;51.506;11.320;2023-07-30T07:51:54;2.73;;;2.20;;
9960;SDS011;5021;51.506;11.320;2023-07-30T07:54:20;3.47;;;1.97;;
9960;SDS011;5021;51.506;11.320;2023-07-30T07:56:46;2.33;;;2.00;;
9960;SDS011;5021;51.506;11.320;2023-07-30T07:59:12;2.42;;;1.80;;
9960;SDS011;5021;51.506;11.320;2023-07-30T08:01:38;2.20;;;1.63;;
9960;SDS011;5021;51.506;11.320;2023-07-30T08:04:04;2.38;;;2.08;;
9960;SDS011;5021;51.506;11.320;2023-07-30T08:06:31;6.07;;;2.05;;
9960;SDS011;5021;51.506;11.320;2023-07-30T08:08:57;4.30;;;2.35;;
9960;SDS011;5021;51.506;11.320;2023-07-30T08:11:23;2.95;;;2.28;;
9960;SDS011;5021;51.506;11.320;2023-07-30T08:13:49;2.42;;;1.88;;
9960;SDS011;5021;51.506;11.320;2023-07-30T08:16:15;2.72;;;2.10;;
9960;SDS011;5021;51.506;11.320;2023-07-30T08:18:41;2.90;;;2.15;;
9960;SDS011;5021;51.506;11.320;2023-07-30T08:21:06;4.13;;;2.40;;
9960;SDS011;5021;51.506;11.320;2023-07-30T08:23:33;4.57;;;2.17;;
9960;SDS011;5021;51.506;11.320;2023-07-30T08:25:58;4.00;;;2.30;;
9960;SDS011;5021;51.506;11.320;2023-07-30T08:28:24;3.10;;;2.13;;
9960;SDS011;5021;51.506;11.320;2023-07-30T08:30:50;3.03;;;2.17;;
9960;SDS011;5021;51.506;11.320;2023-07-30T08:33:16;4.03;;;2.30;;
9960;SDS011;5021;51.506;11.320;2023-07-30T08:35:42;5.30;;;2.37;;
9960;SDS011;5021;51.506;11.320;2023-07-30T08:38:08;2.70;;;2.27;;
9960;SDS011;5021;51.506;11.320;2023-07-30T08:40:34;2.67;;;2.00;;
9960;SDS011;5021;51.506;11.320;2023-07-30T08:43:00;3.30;;;2.20;;
9960;SDS011;5021;51.506;11.320;2023-07-30T08:45:29;2.33;;;1.80;;
9960;SDS011;5021;51.506;11.320;2023-07-30T08:47:55;3.10;;;2.30;;
9960;SDS011;5021;51.506;11.320;2023-07-30T08:50:21;3.37;;;2.10;;
9960;SDS011;5021;51.506;11.320;2023-07-30T08:52:47;3.10;;;2.07;;
9960;SDS011;5021;51.506;11.320;2023-07-30T08:55:13;3.20;;;2.10;;
9960;SDS011;5021;51.506;11.320;2023-07-30T08:57:40;3.50;;;2.00;;
9960;SDS011;5021;51.506;11.320;2023-07-30T09:00:07;4.30;;;1.80;;
9960;SDS011;5021;51.506;11.320;2023-07-30T09:02:38;3.20;;;2.03;;
9960;SDS011;5021;51.506;11.320;2023-07-30T09:05:05;3.77;;;2.10;;
9960;SDS011;5021;51.506;11.320;2023-07-30T09:07:31;2.67;;;1.97;;
9960;SDS011;5021;51.506;11.320;2023-07-30T09:09:58;3.37;;;1.90;;
9960;SDS011;5021;51.506;11.320;2023-07-30T09:12:31;3.33;;;1.90;;
9960;SDS011;5021;51.506;11.320;2023-07-30T09:14:57;2.40;;;2.10;;
9960;SDS011;5021;51.506;11.320;2023-07-30T09:17:23;4.60;;;1.90;;
9960;SDS011;5021;51.506;11.320;2023-07-30T09:19:49;2.60;;;2.00;;
9960;SDS011;5021;51.506;11.320;2023-07-30T09:24:51;3.73;;;1.90;;
9960;SDS011;5021;51.506;11.320;2023-07-30T09:27:19;2.80;;;1.90;;
9960;SDS011;5021;51.506;11.320;2023-07-30T09:29:58;2.87;;;1.87;;
9960;SDS011;5021;51.506;11.320;2023-07-30T09:32:28;3.10;;;1.73;;
9960;SDS011;5021;51.506;11.320;2023-07-30T09:34:54;2.27;;;1.53;;
9960;SDS011;5021;51.506;11.320;2023-07-30T09:37:20;2.00;;;1.77;;
9960;SDS011;5021;51.506;11.320;2023-07-30T09:39:49;1.90;;;1.70;;
9960;SDS011;5021;51.506;11.320;2023-07-30T09:42:15;2.03;;;1.37;;
9960;SDS011;5021;51.506;11.320;2023-07-30T09:44:41;2.10;;;1.50;;
9960;SDS011;5021;51.506;11.320;2023-07-30T09:47:10;1.70;;;1.50;;
9960;SDS011;5021;51.506;11.320;2023-07-30T09:49:37;2.60;;;1.77;;
9960;SDS011;5021;51.506;11.320;2023-07-30T09:52:04;3.33;;;1.80;;
9960;SDS011;5021;51.506;11.320;2023-07-30T09:54:31;1.90;;;1.63;;
9960;SDS011;5021;51.506;11.320;2023-07-30T09:56:57;2.37;;;1.30;;
9960;SDS011;5021;51.506;11.320;2023-07-30T09:59:23;2.67;;;1.77;;
9960;SDS011;5021;51.506;11.320;2023-07-30T10:01:49;2.10;;;1.63;;
9960;SDS011;5021;51.506;11.320;2023-07-30T10:04:21;1.53;;;1.43;;
9960;SDS011;5021;51.506;11.320;2023-07-30T10:09:16;2.20;;;1.50;;
9960;SDS011;5021;51.506;11.320;2023-07-30T10:11:43;1.83;;;1.43;;
9960;SDS011;5021;51.506;11.320;2023-07-30T10:14:11;1.80;;;1.57;;
9960;SDS011;5021;51.506;11.320;2023-07-30T10:16:37;4.33;;;1.87;;
9960;SDS011;5021;51.506;11.320;2023-07-30T10:19:02;2.40;;;1.70;;
9960;SDS011;5021;51.506;11.320;2023-07-30T10:21:31;1.50;;;1.40;;
9960;SDS011;5021;51.506;11.320;2023-07-30T10:24:01;2.57;;;1.40;;
9960;SDS011;5021;51.506;11.320;2023-07-30T10:26:31;2.03;;;1.40;;
9960;SDS011;5021;51.506;11.320;2023-07-30T10:34:18;2.33;;;1.70;;
9960;SDS011;5021;51.506;11.320;2023-07-30T10:36:44;1.97;;;1.60;;
9960;SDS011;5021;51.506;11.320;2023-07-30T10:39:12;1.97;;;1.60;;
9960;SDS011;5021;51.506;11.320;2023-07-30T10:41:38;3.03;;;1.90;;
9960;SDS011;5021;51.506;11.320;2023-07-30T10:44:04;2.43;;;1.80;;
9960;SDS011;5021;51.506;11.320;2023-07-30T10:46:30;2.00;;;1.73;;
9960;SDS011;5021;51.506;11.320;2023-07-30T10:48:57;2.07;;;1.60;;
9960;SDS011;5021;51.506;11.320;2023-07-30T10:51:23;2.43;;;1.90;;
9960;SDS011;5021;51.506;11.320;2023-07-30T10:53:49;3.17;;;2.00;;
9960;SDS011;5021;51.506;11.320;2023-07-30T10:56:16;2.50;;;1.90;;
9960;SDS011;5021;51.506;11.320;2023-07-30T10:58:43;4.53;;;2.00;;
9960;SDS011;5021;51.506;11.320;2023-07-30T11:01:10;3.20;;;2.17;;
9960;SDS011;5021;51.506;11.320;2023-07-30T11:03:36;3.57;;;2.20;;
9960;SDS011;5021;51.506;11.320;2023-07-30T11:06:03;2.73;;;2.10;;
9960;SDS011;5021;51.506;11.320;2023-07-30T11:08:39;3.23;;;2.20;;
9960;SDS011;5021;51.506;11.320;2023-07-30T11:11:07;2.23;;;2.03;;
9960;SDS011;5021;51.506;11.320;2023-07-30T11:13:40;2.30;;;2.00;;
9960;SDS011;5021;51.506;11.320;2023-07-30T11:16:07;3.43;;;2.10;;
9960;SDS011;5021;51.506;11.320;2023-07-30T11:18:33;3.37;;;2.00;;
9960;SDS011;5021;51.506;11.320;2023-07-30T11:21:07;2.20;;;2.00;;
9960;SDS011;5021;51.506;11.320;2023-07-30T11:23:33;2.83;;;2.53;;
9960;SDS011;5021;51.506;11.320;2023-07-30T11:26:03;2.30;;;2.10;;
9960;SDS011;5021;51.506;11.320;2023-07-30T11:28:34;3.30;;;2.70;;
9960;SDS011;5021;51.506;11.320;2023-07-30T11:31:01;5.97;;;2.70;;
9960;SDS011;5021;51.506;11.320;2023-07-30T11:33:27;2.63;;;2.43;;
9960;SDS011;5021;51.506;11.320;2023-07-30T11:35:57;2.90;;;2.17;;
9960;SDS011;5021;51.506;11.320;2023-07-30T11:38:23;2.70;;;2.50;;
9960;SDS011;5021;51.506;11.320;2023-07-30T11:40:50;2.80;;;2.33;;
9960;SDS011;5021;51.506;11.320;2023-07-30T11:43:16;2.73;;;2.53;;
9960;SDS011;5021;51.506;11.320;2023-07-30T11:45:42;3.37;;;2.70;;
9960;SDS011;5021;51.506;11.320;2023-07-30T11:48:09;3.03;;;2.73;;
9960;SDS011;5021;51.506;11.320;2023-07-30T11:50:48;2.97;;;2.60;;
9960;SDS011;5021;51.506;11.320;2023-07-30T11:53:14;3.27;;;2.87;;
9960;SDS011;5021;51.506;11.320;2023-07-30T11:55:41;3.00;;;2.70;;
9960;SDS011;5021;51.506;11.320;2023-07-30T11:58:07;4.37;;;3.07;;
9960;SDS011;5021;51.506;11.320;2023-07-30T12:00:34;3.70;;;3.40;;
9960;SDS011;5021;51.506;11.320;2023-07-30T12:03:05;4.10;;;3.50;;
9960;SDS011;5021;51.506;11.320;2023-07-30T12:05:36;3.13;;;2.87;;
9960;SDS011;5021;51.506;11.320;2023-07-30T12:08:02;4.30;;;2.93;;
9960;SDS011;5021;51.506;11.320;2023-07-30T12:10:40;3.10;;;2.80;;
9960;SDS011;5021;51.506;11.320;2023-07-30T12:13:17;3.17;;;2.60;;
9960;SDS011;5021;51.506;11.320;2023-07-30T12:15:53;2.73;;;2.53;;
9960;SDS011;5021;51.506;11.320;2023-07-30T12:18:19;3.00;;;2.70;;
9960;SDS011;5021;51.506;11.320;2023-07-30T12:20:46;2.20;;;2.00;;
9960;SDS011;5021;51.506;11.320;2023-07-30T12:23:12;2.93;;;2.30;;
9960;SDS011;5021;51.506;11.320;2023-07-30T12:25:38;2.83;;;2.10;;
9960;SDS011;5021;51.506;11.320;2023-07-30T12:28:04;3.30;;;2.27;;
9960;SDS011;5021;51.506;11.320;2023-07-30T12:30:30;3.30;;;2.30;;
9960;SDS011;5021;51.506;11.320;2023-07-30T12:32:56;4.23;;;2.63;;
9960;SDS011;5021;51.506;11.320;2023-07-30T12:35:23;3.37;;;2.50;;
9960;SDS011;5021;51.506;11.320;2023-07-30T12:37:49;2.53;;;2.33;;
9960;SDS011;5021;51.506;11.320;2023-07-30T12:40:15;2.80;;;2.37;;
9960;SDS011;5021;51.506;11.320;2023-07-30T12:42:42;3.07;;;2.20;;
9960;SDS011;5021;51.506;11.320;2023-07-30T12:45:08;2.97;;;2.57;;
9960;SDS011;5021;51.506;11.320;2023-07-30T12:47:34;3.27;;;2.30;;
9960;SDS011;5021;51.506;11.320;2023-07-30T12:50:03;3.03;;;2.30;;
9960;SDS011;5021;51.506;11.320;2023-07-30T12:52:30;3.03;;;2.40;;
9960;SDS011;5021;51.506;11.320;2023-07-30T12:54:56;2.90;;;2.60;;
9960;SDS011;5021;51.506;11.320;2023-07-30T12:57:22;3.23;;;2.67;;
9960;SDS011;5021;51.506;11.320;2023-07-30T12:59:48;2.70;;;2.47;;
9960;SDS011;5021;51.506;11.320;2023-07-30T13:02:14;2.40;;;2.20;;
9960;SDS011;5021;51.506;11.320;2023-07-30T13:04:40;2.83;;;2.20;;
9960;SDS011;5021;51.506;11.320;2023-07-30T13:07:06;3.30;;;2.10;;
9960;SDS011;5021;51.506;11.320;2023-07-30T13:09:32;2.87;;;2.40;;
9960;SDS011;5021;51.506;11.320;2023-07-30T13:11:58;2.33;;;1.90;;
9960;SDS011;5021;51.506;11.320;2023-07-30T13:14:24;2.30;;;2.10;;
9960;SDS011;5021;51.506;11.320;2023-07-30T13:16:50;2.07;;;1.87;;
9960;SDS011;5021;51.506;11.320;2023-07-30T13:19:16;2.00;;;1.80;;
9960;SDS011;5021;51.506;11.320;2023-07-30T13:21:42;1.90;;;1.70;;
9960;SDS011;5021;51.506;11.320;2023-07-30T13:24:07;1.70;;;1.60;;
9960;SDS011;5021;51.506;11.320;2023-07-30T13:26:34;1.73;;;1.63;;
9960;SDS011;5021;51.506;11.320;2023-07-30T13:29:00;1.90;;;1.80;;
9960;SDS011;5021;51.506;11.320;2023-07-30T13:31:26;2.10;;;1.90;;
9960;SDS011;5021;51.506;11.320;2023-07-30T13:33:52;1.80;;;1.70;;
9960;SDS011;5021;51.506;11.320;2023-07-30T13:36:18;2.40;;;1.70;;
9960;SDS011;5021;51.506;11.320;2023-07-30T13:38:44;1.60;;;1.47;;
9960;SDS011;5021;51.506;11.320;2023-07-30T13:41:10;2.97;;;1.47;;
9960;SDS011;5021;51.506;11.320;2023-07-30T13:43:36;1.57;;;1.40;;
9960;SDS011;5021;51.506;11.320;2023-07-30T13:46:02;3.17;;;1.70;;
9960;SDS011;5021;51.506;11.320;2023-07-30T13:48:28;1.80;;;1.40;;
9960;SDS011;5021;51.506;11.320;2023-07-30T13:50:54;2.17;;;1.40;;
9960;SDS011;5021;51.506;11.320;2023-07-30T13:53:20;1.40;;;1.30;;
9960;SDS011;5021;51.506;11.320;2023-07-30T13:55:46;1.40;;;1.30;;
9960;SDS011;5021;51.506;11.320;2023-07-30T13:58:12;1.43;;;1.20;;
9960;SDS011;5021;51.506;11.320;2023-07-30T14:00:39;1.20;;;1.10;;
9960;SDS011;5021;51.506;11.320;2023-07-30T14:03:06;1.40;;;1.30;;
9960;SDS011;5021;51.506;11.320;2023-07-30T14:05:32;1.70;;;1.40;;
9960;SDS011;5021;51.506;11.320;2023-07-30T14:07:58;3.60;;;1.60;;
9960;SDS011;5021;51.506;11.320;2023-07-30T14:10:24;2.60;;;1.73;;
9960;SDS011;5021;51.506;11.320;2023-07-30T14:12:50;2.17;;;1.70;;
9960;SDS011;5021;51.506;11.320;2023-07-30T14:15:16;2.13;;;1.70;;
9960;SDS011;5021;51.506;11.320;2023-07-30T14:17:42;2.93;;;1.80;;
9960;SDS011;5021;51.506;11.320;2023-07-30T14:20:08;1.73;;;1.57;;
9960;SDS011;5021;51.506;11.320;2023-07-30T14:22:34;2.30;;;1.60;;
9960;SDS011;5021;51.506;11.320;2023-07-30T14:25:03;1.80;;;1.70;;
9960;SDS011;5021;51.506;11.320;2023-07-30T14:27:29;1.90;;;1.50;;
9960;SDS011;5021;51.506;11.320;2023-07-30T14:29:56;2.27;;;1.73;;
9960;SDS011;5021;51.506;11.320;2023-07-30T14:32:23;2.80;;;1.83;;
9960;SDS011;5021;51.506;11.320;2023-07-30T14:34:49;4.27;;;1.90;;
9960;SDS011;5021;51.506;11.320;2023-07-30T14:37:15;3.20;;;2.00;;
9960;SDS011;5021;51.506;11.320;2023-07-30T14:39:41;1.77;;;1.60;;
9960;SDS011;5021;51.506;11.320;2023-07-30T14:42:07;2.30;;;1.80;;
9960;SDS011;5021;51.506;11.320;2023-07-30T14:44:34;2.70;;;1.60;;
9960;SDS011;5021;51.506;11.320;2023-07-30T14:47:00;2.77;;;1.90;;
9960;SDS011;5021;51.506;11.320;2023-07-30T14:49:28;2.10;;;1.70;;
9960;SDS011;5021;51.506;11.320;2023-07-30T14:51:54;2.67;;;1.50;;
9960;SDS011;5021;51.506;11.320;2023-07-30T14:56:07;2.97;;;1.73;;
9960;SDS011;5021;51.506;11.320;2023-07-30T14:58:33;2.73;;;1.80;;
9960;SDS011;5021;51.506;11.320;2023-07-30T15:00:59;2.90;;;1.67;;
9960;SDS011;5021;51.506;11.320;2023-07-30T15:03:25;2.30;;;1.80;;
9960;SDS011;5021;51.506;11.320;2023-07-30T15:05:51;3.53;;;2.30;;
9960;SDS011;5021;51.506;11.320;2023-07-30T15:08:17;3.60;;;2.13;;